createdAt,value
2022-12-17T00:00:46.725Z,2144
2022-12-17T00:05:48.362Z,1931.09677
2022-12-17T00:10:50.181Z,1523.48718
2022-12-17T00:15:51.843Z,1128.61538
2022-12-17T00:20:53.634Z,1064
2022-12-17T00:25:55.363Z,1084.74074
2022-12-17T00:30:57.951Z,921.77778
2022-12-17T00:35:59.637Z,1024.70175
2022-12-17T00:41:01.325Z,1128.61538
2022-12-17T00:46:03.053Z,1151.84314
2022-12-17T00:51:04.698Z,1106.26415
2022-12-17T00:56:06.323Z,1254.6383
2022-12-17T01:01:07.962Z,1344
2022-12-17T01:06:09.652Z,1376.55814
2022-12-17T01:11:11.642Z,1410.66667
2022-12-17T01:16:13.341Z,1484
2022-12-17T01:21:15.040Z,1312.88889
2022-12-17T01:26:16.663Z,1484
2022-12-17T01:31:18.463Z,1523.48718
2022-12-17T01:36:20.147Z,1410.66667
2022-12-17T01:41:21.970Z,1254.6383
2022-12-17T01:46:23.636Z,1484
2022-12-17T01:51:25.408Z,1523.48718
2022-12-17T01:56:27.043Z,1484
2022-12-17T02:01:29.015Z,1446.43902
2022-12-17T02:06:30.673Z,1446.43902
2022-12-17T02:11:32.234Z,1608.86486
2022-12-17T02:16:33.946Z,1655.11111
2022-12-17T02:21:35.598Z,1484
2022-12-17T02:26:37.304Z,1565.05263
2022-12-17T02:31:38.952Z,1523.48718
2022-12-17T02:36:40.611Z,1704
2022-12-17T02:41:42.318Z,1755.76471
2022-12-17T02:46:43.896Z,1704
2022-12-17T02:51:45.630Z,1704
2022-12-17T02:56:47.242Z,1810.66667
2022-12-17T03:01:49.090Z,1755.76471
2022-12-17T03:06:50.861Z,1810.66667
2022-12-17T03:11:52.517Z,1869
2022-12-17T03:16:54.217Z,1931.09677
2022-12-17T03:21:55.858Z,1869
2022-12-17T03:26:57.498Z,1997.33333
2022-12-17T03:31:59.148Z,1997.33333
2022-12-17T03:37:00.772Z,1931.09677
2022-12-17T03:42:02.620Z,2144
2022-12-17T03:47:04.270Z,2068.13793
2022-12-17T03:52:05.896Z,2068.13793
2022-12-17T03:57:10.612Z,2068.13793
2022-12-17T04:02:16.558Z,2144
2022-12-17T04:07:18.283Z,2313.23077
2022-12-17T04:12:19.888Z,2622.26087
2022-12-17T04:17:21.542Z,2510.66667
2022-12-17T04:22:23.219Z,2510.66667
2022-12-17T04:27:24.834Z,2622.26087
2022-12-17T04:32:28.240Z,2510.66667
2022-12-17T04:37:32.886Z,2408
2022-12-17T04:42:34.510Z,2408
2022-12-17T04:47:36.118Z,2408
2022-12-17T04:52:37.724Z,2408
2022-12-17T04:57:39.360Z,1931.09677
2022-12-17T05:02:42.788Z,1997.33333
2022-12-17T05:07:44.794Z,2313.23077
2022-12-17T05:12:46.508Z,2313.23077
2022-12-17T05:17:48.151Z,2408
2022-12-17T05:22:49.781Z,2408
2022-12-17T05:27:51.448Z,2068.13793
2022-12-17T05:32:53.119Z,2144
2022-12-17T05:37:54.716Z,2510.66667
2022-12-17T05:42:56.371Z,2225.48148
2022-12-17T05:47:58.065Z,2225.48148
2022-12-17T05:52:59.743Z,2408
2022-12-17T05:58:01.326Z,2510.66667
2022-12-17T06:03:03.098Z,2408
2022-12-17T06:08:04.792Z,2622.26087
2022-12-17T06:13:06.409Z,2744
2022-12-17T06:18:13.601Z,2744
2022-12-17T06:23:18.262Z,2510.66667
2022-12-17T06:28:19.901Z,2877.33333
2022-12-17T06:33:21.556Z,2877.33333
2022-12-17T06:38:23.157Z,2877.33333
2022-12-17T06:43:24.789Z,3024
2022-12-17T06:48:26.460Z,3186.10526
2022-12-17T06:53:28.325Z,3186.10526
2022-12-17T06:58:29.917Z,3186.10526
2022-12-17T07:03:31.585Z,3567.52941
2022-12-17T07:08:33.239Z,3567.52941
2022-12-17T07:13:35.279Z,3366.22222
2022-12-17T07:18:37.204Z,3567.52941
2022-12-17T07:23:39.187Z,3366.22222
2022-12-17T07:28:40.936Z,3567.52941
2022-12-17T07:33:42.686Z,3567.52941
2022-12-17T07:38:44.336Z,3567.52941
2022-12-17T07:43:51.289Z,3794
2022-12-17T07:48:54.850Z,3366.22222
2022-12-17T07:53:56.461Z,3567.52941
2022-12-17T07:58:58.148Z,3366.22222
2022-12-17T08:03:59.777Z,3366.22222
2022-12-17T08:09:01.438Z,3567.52941
2022-12-17T08:14:03.115Z,3567.52941
2022-12-17T08:19:04.796Z,3366.22222
2022-12-17T08:24:06.383Z,3186.10526
2022-12-17T08:29:08.000Z,3186.10526
2022-12-17T08:34:09.647Z,3567.52941
2022-12-17T08:39:11.286Z,3567.52941
2022-12-17T08:44:12.897Z,3567.52941
2022-12-17T08:49:14.586Z,3794
2022-12-17T08:54:16.183Z,4050.66667
2022-12-17T08:59:17.820Z,3794
2022-12-17T09:04:19.414Z,3366.22222
2022-12-17T09:09:21.022Z,3567.52941
2022-12-17T09:14:22.649Z,3794
2022-12-17T09:19:24.337Z,3794
2022-12-17T09:24:25.954Z,3794
2022-12-17T09:29:27.725Z,3366.22222
2022-12-17T09:34:29.333Z,3186.10526
2022-12-17T09:39:30.976Z,3024
2022-12-17T09:44:32.665Z,3186.10526
2022-12-17T09:49:34.306Z,3186.10526
2022-12-17T09:54:35.965Z,3024
2022-12-17T09:59:37.617Z,3024
2022-12-17T10:04:39.216Z,3186.10526
2022-12-17T10:09:40.850Z,3366.22222
2022-12-17T10:14:42.655Z,3794
2022-12-17T10:19:44.255Z,3567.52941
2022-12-17T10:24:45.910Z,3567.52941
2022-12-17T10:29:48.554Z,3567.52941
2022-12-17T10:34:50.493Z,3794
2022-12-17T10:39:52.101Z,3794
2022-12-17T10:44:53.770Z,4050.66667
2022-12-17T10:49:55.291Z,3794
2022-12-17T10:54:57.127Z,3794
2022-12-17T10:59:58.713Z,3794
2022-12-17T11:05:00.324Z,3794
2022-12-17T11:10:08.714Z,3794
2022-12-17T11:15:11.256Z,3794
2022-12-17T11:20:12.894Z,3794
2022-12-17T11:25:14.490Z,3794
2022-12-17T11:30:16.127Z,3366.22222
2022-12-17T11:35:17.792Z,3366.22222
2022-12-17T11:40:19.400Z,3567.52941
2022-12-17T11:45:21.036Z,3794
2022-12-17T11:50:22.674Z,3567.52941
2022-12-17T11:55:24.281Z,3567.52941
2022-12-17T12:00:25.875Z,3366.22222
2022-12-17T12:05:27.505Z,3366.22222
2022-12-17T12:10:29.130Z,3186.10526
2022-12-17T12:15:30.925Z,3186.10526
2022-12-17T12:20:32.546Z,3024
2022-12-17T12:25:34.175Z,3186.10526
2022-12-17T12:30:35.787Z,3366.22222
2022-12-17T12:35:37.382Z,3567.52941
2022-12-17T12:40:39.117Z,3567.52941
2022-12-17T12:45:40.984Z,3567.52941
2022-12-17T12:50:42.665Z,3794
2022-12-17T12:55:44.293Z,3794
2022-12-17T13:00:46.041Z,3794
2022-12-17T13:05:47.742Z,3794
2022-12-17T13:10:49.534Z,3794
2022-12-17T13:15:51.393Z,3794
2022-12-17T13:20:53.059Z,3366.22222
2022-12-17T13:25:54.623Z,3567.52941
2022-12-17T13:30:56.388Z,3567.52941
2022-12-17T13:35:58.013Z,3567.52941
2022-12-17T13:40:59.751Z,3567.52941
2022-12-17T13:46:01.457Z,3366.22222
2022-12-17T13:51:03.166Z,3024
2022-12-17T13:56:04.979Z,2408
2022-12-17T14:01:06.681Z,2408
2022-12-17T14:06:08.389Z,2408
2022-12-17T14:11:10.044Z,2744
2022-12-17T14:16:11.761Z,2313.23077
2022-12-17T14:21:13.450Z,2144
2022-12-17T14:26:15.144Z,2408
2022-12-17T14:31:26.542Z,2225.48148
2022-12-17T14:36:29.197Z,1997.33333
2022-12-17T14:41:30.817Z,2622.26087
2022-12-17T14:46:32.508Z,2744
2022-12-17T14:51:34.104Z,3024
2022-12-17T14:56:35.708Z,3024
2022-12-17T15:01:37.496Z,2877.33333
2022-12-17T15:06:39.193Z,2408
2022-12-17T15:11:40.805Z,2068.13793
2022-12-17T15:16:42.539Z,1608.86486
2022-12-17T15:21:44.150Z,1997.33333
2022-12-17T15:26:45.854Z,2144
2022-12-17T15:31:47.563Z,2068.13793
2022-12-17T15:36:49.389Z,1931.09677
2022-12-17T15:41:51.017Z,2144
2022-12-17T15:46:52.703Z,1869
2022-12-17T15:51:54.342Z,2408
2022-12-17T15:56:56.034Z,2510.66667
2022-12-17T16:01:57.799Z,1810.66667
2022-12-17T16:06:59.587Z,1869
2022-12-17T16:12:01.190Z,1869
2022-12-17T16:17:02.761Z,2068.13793
2022-12-17T16:22:04.362Z,1755.76471
2022-12-17T16:27:06.069Z,1931.09677
2022-12-17T16:32:07.653Z,1810.66667
2022-12-17T16:37:09.283Z,1655.11111
2022-12-17T16:42:10.863Z,1565.05263
2022-12-17T16:47:12.464Z,1655.11111
2022-12-17T16:52:14.099Z,1446.43902
2022-12-17T16:57:15.873Z,1755.76471
2022-12-17T17:02:17.670Z,1655.11111
2022-12-17T17:07:19.408Z,1446.43902
2022-12-17T17:12:21.023Z,1655.11111
2022-12-17T17:17:55.780Z,1608.86486
2022-12-17T17:22:57.874Z,1755.76471
2022-12-17T17:27:59.534Z,1655.11111
2022-12-17T17:33:01.380Z,1869
2022-12-17T17:38:02.976Z,1869
2022-12-17T17:43:04.581Z,1608.86486
2022-12-17T17:48:06.233Z,1312.88889
2022-12-17T17:53:07.873Z,1523.48718
2022-12-17T17:58:10.475Z,1810.66667
2022-12-17T18:03:12.220Z,1446.43902
2022-12-17T18:08:13.897Z,1608.86486
2022-12-17T18:13:15.519Z,1655.11111
2022-12-17T18:18:17.136Z,1810.66667
2022-12-17T18:23:18.980Z,1608.86486
2022-12-17T18:28:20.666Z,1446.43902
2022-12-17T18:33:22.258Z,1410.66667
2022-12-17T18:38:23.849Z,1312.88889
2022-12-17T18:43:25.483Z,1201.14286
2022-12-17T18:48:27.113Z,1484
2022-12-17T18:53:28.779Z,1655.11111
2022-12-17T18:58:30.392Z,1704
2022-12-17T19:03:32.021Z,2068.13793
2022-12-17T19:08:33.768Z,2144
2022-12-17T19:13:35.461Z,1869
2022-12-17T19:18:37.504Z,1931.09677
2022-12-17T19:23:39.334Z,2225.48148
2022-12-17T19:28:40.940Z,2225.48148
2022-12-17T19:33:42.572Z,1931.09677
2022-12-17T19:38:44.243Z,1869
2022-12-17T19:43:45.819Z,2068.13793
2022-12-17T19:48:48.977Z,2144
2022-12-17T19:53:50.895Z,2068.13793
2022-12-17T19:58:52.596Z,1997.33333
2022-12-17T20:03:54.201Z,1869
2022-12-17T20:08:55.865Z,2068.13793
2022-12-17T20:13:57.440Z,2313.23077
2022-12-17T20:18:59.041Z,2068.13793
2022-12-17T20:24:00.815Z,1869
2022-12-17T20:29:02.511Z,1997.33333
2022-12-17T20:34:09.077Z,2068.13793
2022-12-17T20:39:10.763Z,2068.13793
2022-12-17T20:44:12.392Z,2225.48148
2022-12-17T20:49:14.839Z,2622.26087
2022-12-17T20:54:16.531Z,2510.66667
2022-12-17T20:59:18.165Z,2744
2022-12-17T21:04:19.771Z,2313.23077
2022-12-17T21:09:21.385Z,2510.66667
2022-12-17T21:14:23.230Z,3024
2022-12-17T21:19:24.813Z,2622.26087
2022-12-17T21:24:26.539Z,2313.23077
2022-12-17T21:29:28.179Z,2408
2022-12-17T21:34:29.790Z,2622.26087
2022-12-17T21:39:31.462Z,2744
2022-12-17T21:44:33.096Z,2622.26087
2022-12-17T21:49:34.822Z,2744
2022-12-17T21:54:36.859Z,2510.66667
2022-12-17T21:59:39.165Z,2622.26087
2022-12-17T22:04:40.934Z,2744
2022-12-17T22:09:51.252Z,3024
2022-12-17T22:15:05.416Z,3186.10526
2022-12-17T22:20:07.482Z,3567.52941
2022-12-17T22:25:10.737Z,3794
2022-12-17T22:30:13.711Z,3794
2022-12-17T22:36:43.197Z,3794
2022-12-17T22:44:54.534Z,4344
2022-12-17T22:49:57.095Z,4344
2022-12-17T22:54:59.416Z,3794
2022-12-17T23:00:01.273Z,3567.52941
2022-12-17T23:05:02.990Z,3567.52941
2022-12-17T23:10:04.661Z,3794
2022-12-17T23:15:06.534Z,3794
2022-12-17T23:20:08.159Z,4682.46154
2022-12-17T23:25:10.041Z,4050.66667
2022-12-17T23:30:11.683Z,3794
2022-12-17T23:35:13.293Z,3567.52941
2022-12-17T23:40:14.993Z,3186.10526
2022-12-17T23:45:16.627Z,3186.10526
2022-12-17T23:50:18.278Z,3567.52941
2022-12-17T23:55:19.984Z,3186.10526
